createdAt,value
2018-02-27T00:00:02.585Z,-8
2018-02-27T00:05:05.552Z,-8.1
2018-02-27T00:10:02.565Z,-8.1
2018-02-27T00:15:05.526Z,-8.2
2018-02-27T00:20:03.178Z,-8.2
2018-02-27T00:25:02.635Z,-8.2
2018-02-27T00:30:08.262Z,-8.4
2018-02-27T00:35:15.338Z,-8.4
2018-02-27T00:40:12.571Z,-8.4
2018-02-27T00:45:28.247Z,-8.4
2018-02-27T00:50:02.726Z,-8.4
2018-02-27T00:55:03.237Z,-8.4
2018-02-27T01:00:02.745Z,-8.5
2018-02-27T01:05:03.293Z,-8.5
2018-02-27T01:10:03.285Z,-8.5
2018-02-27T01:15:05.263Z,-8.5
2018-02-27T01:20:02.937Z,-8.6
2018-02-27T01:25:05.941Z,-8.6
2018-02-27T01:30:02.517Z,-8.6
2018-02-27T01:35:35.952Z,-8.7
2018-02-27T01:40:02.912Z,-8.7
2018-02-27T01:45:05.006Z,-8.9
2018-02-27T01:50:20.194Z,-9.1
2018-02-27T01:55:02.987Z,-9.1
2018-02-27T02:05:02.877Z,-9.2
2018-02-27T02:10:02.855Z,-9.4
2018-02-27T02:15:23.623Z,-9.5
2018-02-27T02:20:10.743Z,-9.5
2018-02-27T02:25:07.720Z,-9.5
2018-02-27T02:30:08.321Z,-9.5
2018-02-27T02:35:02.710Z,-9.5
2018-02-27T02:40:15.387Z,-9.5
2018-02-27T02:45:08.274Z,-9.6
2018-02-27T02:50:18.047Z,-9.6
2018-02-27T02:55:03.325Z,-9.7
2018-02-27T03:00:05.344Z,-9.8
2018-02-27T03:05:05.813Z,-9.9
2018-02-27T03:10:05.353Z,-9.9
2018-02-27T03:15:03.295Z,-10
2018-02-27T03:20:05.456Z,-10.1
2018-02-27T03:25:02.434Z,-10.1
2018-02-27T03:30:33.344Z,-10.3
2018-02-27T03:35:20.677Z,-10.3
2018-02-27T03:40:07.730Z,-10.3
2018-02-27T03:45:02.819Z,-10.3
2018-02-27T03:50:20.799Z,-10.4
2018-02-27T03:55:05.797Z,-10.4
2018-02-27T04:00:08.152Z,-10.5
2018-02-27T04:05:08.304Z,-10.5
2018-02-27T04:10:05.574Z,-10.5
2018-02-27T04:15:05.765Z,-10.6
2018-02-27T04:20:05.661Z,-10.6
2018-02-27T04:25:03.301Z,-10.6
2018-02-27T04:30:05.097Z,-10.7
2018-02-27T04:35:02.706Z,-10.7
2018-02-27T04:40:02.469Z,-10.7
2018-02-27T04:45:02.573Z,-10.7
2018-02-27T04:50:05.294Z,-10.8
2018-02-27T04:55:10.481Z,-10.8
2018-02-27T05:00:22.949Z,-10.8
2018-02-27T05:05:05.477Z,-10.8
2018-02-27T05:10:18.396Z,-10.8
2018-02-27T05:15:02.388Z,-10.8
2018-02-27T05:20:02.876Z,-10.8
2018-02-27T05:25:08.112Z,-10.9
2018-02-27T05:30:05.866Z,-10.9
2018-02-27T05:35:02.501Z,-10.9
2018-02-27T05:40:03.196Z,-10.9
2018-02-27T05:45:05.860Z,-11
2018-02-27T05:50:03.101Z,-11
2018-02-27T05:55:03.346Z,-11
2018-02-27T06:00:07.577Z,-10.9
2018-02-27T06:05:05.199Z,-10.9
2018-02-27T06:10:07.914Z,-11
2018-02-27T06:15:10.580Z,-11
2018-02-27T06:20:05.440Z,-10.9
2018-02-27T06:25:13.240Z,-10.9
2018-02-27T06:30:05.014Z,-10.8
2018-02-27T06:35:05.226Z,-10.7
2018-02-27T06:40:23.160Z,0.3
2018-02-27T06:45:05.587Z,-10.6
2018-02-27T06:50:07.870Z,-10.6
2018-02-27T06:55:05.510Z,-10.5
2018-02-27T07:00:02.689Z,-10.5
2018-02-27T07:05:05.558Z,-10.2
2018-02-27T07:10:08.417Z,-10.1
2018-02-27T07:15:10.481Z,-9.9
2018-02-27T07:20:10.401Z,-9.7
2018-02-27T07:25:05.530Z,-9.5
2018-02-27T07:30:05.291Z,-9.2
2018-02-27T07:35:23.157Z,-8.9
2018-02-27T07:40:05.408Z,-8.6
2018-02-27T07:45:03.061Z,-8.6
2018-02-27T07:50:18.485Z,-8
2018-02-27T07:55:02.521Z,-8
2018-02-27T08:00:05.280Z,-7.5
2018-02-27T08:05:02.930Z,-7.5
2018-02-27T08:10:02.650Z,-7.3
2018-02-27T08:15:05.441Z,-7.1
2018-02-27T08:20:02.890Z,-7.1
2018-02-27T08:25:08.178Z,-7.1
2018-02-27T08:30:05.892Z,-7.2
2018-02-27T08:35:05.060Z,-7.2
2018-02-27T08:40:05.274Z,-7.2
2018-02-27T08:45:05.437Z,-7.2
2018-02-27T08:50:10.285Z,-7.2
2018-02-27T08:55:05.418Z,-7.2
2018-02-27T09:00:10.274Z,-7.1
2018-02-27T09:05:10.494Z,-7
2018-02-27T09:10:13.324Z,-7
2018-02-27T09:15:04.970Z,-6.9
2018-02-27T09:20:05.857Z,-6.8
2018-02-27T09:25:05.178Z,-6.6
2018-02-27T09:30:05.028Z,-6.3
2018-02-27T09:35:05.187Z,-5.9
2018-02-27T09:40:15.815Z,-5.6
2018-02-27T09:45:02.447Z,-5.6
2018-02-27T09:50:05.249Z,-5.2
2018-02-27T09:55:02.911Z,-5.2
2018-02-27T10:00:03.198Z,-5.1
2018-02-27T10:05:05.848Z,-4.8
2018-02-27T10:10:05.228Z,-4.6
2018-02-27T10:15:20.725Z,-4.4
2018-02-27T10:20:08.113Z,-4.2
2018-02-27T10:25:03.248Z,-4.2
2018-02-27T10:30:02.499Z,-4.1
2018-02-27T10:35:35.621Z,-4.1
2018-02-27T10:40:08.440Z,-4.3
2018-02-27T10:45:02.529Z,-4.3
2018-02-27T10:50:07.891Z,-4
2018-02-27T10:55:10.748Z,-3.8
2018-02-27T11:00:05.547Z,-3.6
2018-02-27T11:05:05.768Z,-3.5
2018-02-27T11:10:02.542Z,-3.5
2018-02-27T11:15:02.720Z,-3.4
2018-02-27T11:20:03.085Z,-3.4
2018-02-27T11:25:08.349Z,-3.4
2018-02-27T11:30:02.731Z,-3.4
2018-02-27T11:35:10.486Z,-3.1
2018-02-27T11:40:03.420Z,-3.1
2018-02-27T11:45:10.164Z,-2.8
2018-02-27T11:50:17.689Z,-2.5
2018-02-27T11:55:05.140Z,-2.4
2018-02-27T12:00:07.480Z,-2.3
2018-02-27T12:05:07.735Z,-2.3
2018-02-27T12:10:02.492Z,-2.3
2018-02-27T12:15:07.837Z,-2.1
2018-02-27T12:20:05.647Z,-2
2018-02-27T12:25:22.634Z,-1.9
2018-02-27T12:30:10.711Z,-1.6
2018-02-27T12:35:02.459Z,1.6
2018-02-27T12:40:08.259Z,-1.3
2018-02-27T12:45:02.399Z,-1.3
2018-02-27T12:50:02.718Z,-1
2018-02-27T12:55:05.527Z,-0.6
2018-02-27T13:00:33.254Z,-0.4
2018-02-27T13:05:05.026Z,-0.5
2018-02-27T13:10:10.456Z,-0.3
2018-02-27T13:15:10.653Z,0.3
2018-02-27T13:20:08.166Z,0.4
2018-02-27T13:25:10.910Z,0.4
2018-02-27T13:30:03.200Z,0.4
2018-02-27T13:35:04.982Z,1.2
2018-02-27T13:40:05.273Z,1
2018-02-27T13:45:05.546Z,0.7
2018-02-27T13:50:10.541Z,0.8
2018-02-27T13:55:02.440Z,0.8
2018-02-27T14:00:05.267Z,0.3
2018-02-27T14:05:03.013Z,0.3
2018-02-27T14:10:02.846Z,0.2
2018-02-27T14:15:03.160Z,0.2
2018-02-27T14:20:02.565Z,0.4
2018-02-27T14:25:02.830Z,0.9
2018-02-27T14:30:03.288Z,0.9
2018-02-27T14:35:02.378Z,0.8
2018-02-27T14:40:13.339Z,0.2
2018-02-27T14:45:02.429Z,0.2
2018-02-27T14:50:07.814Z,0
2018-02-27T14:55:05.556Z,0.1
2018-02-27T15:00:02.873Z,0
2018-02-27T15:05:03.140Z,0.1
2018-02-27T15:10:07.975Z,-0.5
2018-02-27T15:15:03.280Z,-0.5
2018-02-27T15:20:05.288Z,-1.1
2018-02-27T15:25:10.483Z,-1.3
2018-02-27T15:30:02.777Z,-1.3
2018-02-27T15:35:03.018Z,-1.5
2018-02-27T15:40:10.385Z,-2
2018-02-27T15:45:18.208Z,-2.1
2018-02-27T15:50:17.597Z,-2.2
2018-02-27T15:55:12.852Z,-2.4
2018-02-27T16:00:03.125Z,-2.3
2018-02-27T16:05:04.929Z,-2.5
2018-02-27T16:10:05.247Z,-2.6
2018-02-27T16:15:08.006Z,-2.8
2018-02-27T16:20:08.546Z,-2.9
2018-02-27T16:25:15.225Z,-3
2018-02-27T16:30:07.544Z,-3.1
2018-02-27T16:35:02.769Z,-3.1
2018-02-27T16:40:05.069Z,-3.3
2018-02-27T16:45:10.432Z,-3.4
2018-02-27T16:50:02.748Z,-3.4
2018-02-27T16:55:08.096Z,-3.6
2018-02-27T17:00:05.896Z,-3.7
2018-02-27T17:05:02.599Z,-3.7
2018-02-27T17:10:03.542Z,-3.7
2018-02-27T17:15:10.384Z,-4
2018-02-27T17:20:05.281Z,-4
2018-02-27T17:25:03.011Z,-4.1
2018-02-27T17:30:13.392Z,-4.3
2018-02-27T17:35:25.377Z,-4.4
2018-02-27T17:40:03.125Z,-4.4
2018-02-27T17:45:20.095Z,-4.6
2018-02-27T17:50:30.275Z,-4.7
2018-02-27T17:55:05.045Z,-4.8
2018-02-27T18:00:05.845Z,-4.9
2018-02-27T18:05:02.528Z,-4.9
2018-02-27T18:10:05.869Z,-5
2018-02-27T18:15:02.465Z,-5
2018-02-27T18:20:07.913Z,-5.3
2018-02-27T18:25:25.980Z,-5.4
2018-02-27T18:30:15.868Z,-5.5
2018-02-27T18:35:02.449Z,-5.5
2018-02-27T18:40:05.766Z,-5.6
2018-02-27T18:45:05.049Z,-5.7
2018-02-27T18:50:05.771Z,-5.8
2018-02-27T18:55:02.434Z,-5.8
2018-02-27T19:00:30.520Z,-5.9
2018-02-27T19:05:02.809Z,-5.9
2018-02-27T19:10:05.056Z,-6
2018-02-27T19:15:05.260Z,-6.1
2018-02-27T19:20:05.206Z,-6.1
2018-02-27T19:25:05.481Z,-6.2
2018-02-27T19:30:05.357Z,-6.2
2018-02-27T19:35:03.067Z,-6.2
2018-02-27T19:40:05.485Z,-6.3
2018-02-27T19:45:10.690Z,-6.3
2018-02-27T19:50:20.624Z,-6.3
2018-02-27T19:55:05.666Z,-6.3
2018-02-27T20:00:08.013Z,-6.3
2018-02-27T20:05:05.655Z,-6.4
2018-02-27T20:10:05.935Z,-6.4
2018-02-27T20:15:05.088Z,-6.5
2018-02-27T20:20:02.399Z,-6.5
2018-02-27T20:25:05.085Z,-6.6
2018-02-27T20:30:10.142Z,-6.7
2018-02-27T20:35:05.284Z,-6.7
2018-02-27T20:40:02.987Z,-6.8
2018-02-27T20:45:03.225Z,-6.7
2018-02-27T20:50:10.059Z,-6.5
2018-02-27T20:55:02.609Z,-6.5
2018-02-27T21:00:20.646Z,-6.5
2018-02-27T21:05:05.658Z,-6.5
2018-02-27T21:10:07.521Z,-6.5
2018-02-27T21:15:10.252Z,-6.4
2018-02-27T21:20:32.912Z,-6.3
2018-02-27T21:25:03.111Z,-6.3
2018-02-27T21:30:07.444Z,-6.4
2018-02-27T21:35:10.233Z,-6.5
2018-02-27T21:40:05.499Z,-6.4
2018-02-27T21:45:08.225Z,-6.6
2018-02-27T21:50:02.688Z,-6.6
2018-02-27T21:55:02.867Z,-6.7
2018-02-27T22:00:10.774Z,-6.7
2018-02-27T22:05:04.978Z,-6.9
2018-02-27T22:10:07.812Z,7
2018-02-27T22:15:10.578Z,-7.2
2018-02-27T22:20:02.939Z,-7.2
2018-02-27T22:25:05.695Z,-7.5
2018-02-27T22:30:08.024Z,-7.8
2018-02-27T22:35:15.852Z,-7.9
2018-02-27T22:40:05.099Z,-8
2018-02-27T22:45:02.767Z,-8
2018-02-27T22:50:03.029Z,-8.1
2018-02-27T22:55:23.419Z,-8.3
2018-02-27T23:00:07.692Z,-8.4
2018-02-27T23:05:02.835Z,-8.4
2018-02-27T23:10:02.651Z,-8.4
2018-02-27T23:15:23.009Z,-8.6
2018-02-27T23:20:02.379Z,-8.6
2018-02-27T23:25:02.561Z,-8.6
2018-02-27T23:30:10.457Z,-8.8
2018-02-27T23:35:10.652Z,-8.8
2018-02-27T23:40:23.610Z,-8.9
2018-02-27T23:45:07.583Z,-9
2018-02-27T23:50:12.991Z,-9.1
2018-02-27T23:55:20.738Z,-9.1
